Time;durP1;ratioP1;P1;durP2;ratioP2;P2;SDS_P1;SDS_P2;PMS_P1;PMS_P2;Temp;Humidity;BMP_temperature;BMP_pressure;BME280_temperature;BME280_humidity;BME280_pressure;Samples;Min_cycle;Max_cycle;Signal;HPM_P1;HPM_P2
2023/07/16 00:00:29;;;;;;;13.40;4.53;;;16.70;75.50;;;;;;5076731;28;20429;-72
2023/07/16 00:02:54;;;;;;;15.87;4.57;;;16.70;75.40;;;;;;5091143;28;20160;-71
2023/07/16 00:05:21;;;;;;;17.03;4.60;;;16.70;75.30;;;;;;5087500;28;20036;-71
2023/07/16 00:07:47;;;;;;;14.57;4.57;;;16.80;75.20;;;;;;5069735;28;20036;-72
2023/07/16 00:10:12;;;;;;;10.20;3.80;;;16.80;75.50;;;;;;5086903;28;20285;-72
2023/07/16 00:12:38;;;;;;;10.00;3.23;;;16.70;75.60;;;;;;5097782;28;20406;-72
2023/07/16 00:15:06;;;;;;;11.30;3.10;;;16.70;75.30;;;;;;5073640;28;20603;-72
2023/07/16 00:17:33;;;;;;;10.00;2.67;;;16.50;75.00;;;;;;5083098;28;20075;-72
2023/07/16 00:19:59;;;;;;;12.40;3.83;;;16.40;74.90;;;;;;5085824;28;20813;-72
2023/07/16 00:22:24;;;;;;;10.43;3.20;;;16.30;75.10;;;;;;5076224;28;20337;-72
2023/07/16 00:25:06;;;;;;;8.60;2.97;;;16.10;75.50;;;;;;5075513;28;20044;-72
2023/07/16 00:27:32;;;;;;;12.40;3.30;;;16.00;75.90;;;;;;5069489;28;20119;-72
2023/07/16 00:29:58;;;;;;;9.67;3.30;;;15.90;76.30;;;;;;5075048;28;20361;-72
2023/07/16 00:32:24;;;;;;;13.30;3.17;;;15.80;76.90;;;;;;5090377;28;20843;-72
2023/07/16 00:34:50;;;;;;;10.70;3.07;;;15.70;77.00;;;;;;5093131;28;20500;-72
2023/07/16 00:37:16;;;;;;;12.70;3.10;;;15.70;77.50;;;;;;5090726;28;20043;-71
2023/07/16 00:39:42;;;;;;;15.63;3.87;;;15.70;77.70;;;;;;5088897;28;20359;-71
2023/07/16 00:42:07;;;;;;;11.50;2.70;;;15.60;78.20;;;;;;5081309;28;20125;-71
2023/07/16 00:44:33;;;;;;;13.77;3.17;;;15.60;78.10;;;;;;5088563;28;20035;-71
2023/07/16 00:46:59;;;;;;;14.80;3.33;;;15.70;78.30;;;;;;5079824;28;20051;-72
2023/07/16 00:49:24;;;;;;;8.67;2.87;;;15.70;78.50;;;;;;5089205;28;20036;-72
2023/07/16 00:51:51;;;;;;;9.90;3.23;;;15.70;78.30;;;;;;5079924;28;20511;-72
2023/07/16 00:54:18;;;;;;;9.50;3.00;;;15.70;78.80;;;;;;5085748;28;20063;-71
2023/07/16 00:56:44;;;;;;;14.53;3.20;;;15.70;78.80;;;;;;5081943;28;20289;-71
2023/07/16 00:59:09;;;;;;;7.33;2.60;;;15.70;79.00;;;;;;5087146;28;20848;-72
2023/07/16 01:01:35;;;;;;;9.70;3.43;;;15.60;79.20;;;;;;5064113;28;20438;-72
2023/07/16 01:04:01;;;;;;;11.70;2.70;;;15.60;79.20;;;;;;5071912;28;20040;-71
2023/07/16 01:06:34;;;;;;;11.57;2.93;;;15.60;79.40;;;;;;5089932;28;20035;-71
2023/07/16 01:09:08;;;;;;;12.40;3.27;;;15.60;79.70;;;;;;5075331;28;20449;-72
2023/07/16 01:11:36;;;;;;;12.87;3.17;;;15.50;80.00;;;;;;5078031;28;20818;-72
2023/07/16 01:14:03;;;;;;;12.23;3.40;;;15.50;80.20;;;;;;5091234;28;20292;-72
2023/07/16 01:16:29;;;;;;;18.87;3.97;;;15.50;80.40;;;;;;5065908;28;20367;-72
2023/07/16 01:18:54;;;;;;;15.00;4.00;;;15.50;80.70;;;;;;5087105;28;20793;-72
2023/07/16 01:21:23;;;;;;;10.77;3.47;;;15.50;81.00;;;;;;5089389;28;20450;-72
2023/07/16 01:24:23;;;;;;;10.50;3.33;;;15.50;81.20;;;;;;5074769;28;20564;-72
2023/07/16 01:27:01;;;;;;;12.83;3.70;;;15.50;81.60;;;;;;5054273;28;20765;-72
2023/07/16 01:29:57;;;;;;;10.57;3.23;;;15.50;82.00;;;;;;5091621;28;20273;-72
2023/07/16 01:32:23;;;;;;;8.57;2.80;;;15.50;82.10;;;;;;5066791;28;20286;-72
2023/07/16 01:34:52;;;;;;;16.20;3.80;;;15.60;82.00;;;;;;5082145;28;20292;-72
2023/07/16 01:37:18;;;;;;;13.50;2.97;;;15.60;82.20;;;;;;5086675;28;20366;-72
2023/07/16 01:39:44;;;;;;;11.00;3.10;;;15.60;82.10;;;;;;5081290;28;20301;-71
2023/07/16 01:42:10;;;;;;;10.73;3.40;;;15.70;82.00;;;;;;5078366;28;20136;-71
2023/07/16 01:44:36;;;;;;;10.83;2.70;;;15.70;81.90;;;;;;5072975;28;20281;-71
2023/07/16 01:47:26;;;;;;;14.13;3.17;;;15.70;81.50;;;;;;5095424;28;20028;-72
2023/07/16 01:49:51;;;;;;;12.00;3.07;;;15.70;81.30;;;;;;5080661;28;20465;-71
2023/07/16 01:52:17;;;;;;;7.50;2.90;;;15.70;81.10;;;;;;5088059;28;20365;-71
2023/07/16 01:54:43;;;;;;;10.37;2.43;;;15.80;80.60;;;;;;5080195;28;20035;-71
2023/07/16 01:57:08;;;;;;;6.20;2.07;;;15.80;80.20;;;;;;5076760;28;20497;-71
2023/07/16 01:59:34;;;;;;;13.20;2.73;;;15.80;80.00;;;;;;5070724;28;20036;-71
2023/07/16 02:02:00;;;;;;;11.63;2.37;;;15.90;79.70;;;;;;5083558;28;20756;-72
2023/07/16 02:04:25;;;;;;;9.40;2.70;;;16.00;79.30;;;;;;5087049;28;20075;-72
2023/07/16 02:06:51;;;;;;;8.10;2.47;;;16.00;79.30;;;;;;5087502;28;20032;-72
2023/07/16 02:09:17;;;;;;;9.03;2.60;;;16.00;79.40;;;;;;5085478;28;20031;-72
2023/07/16 02:11:42;;;;;;;8.57;2.37;;;16.10;79.20;;;;;;5073159;28;20039;-71
2023/07/16 02:14:09;;;;;;;6.53;2.20;;;16.10;79.10;;;;;;5069750;28;20096;-71
2023/07/16 02:16:34;;;;;;;10.40;2.67;;;16.10;79.00;;;;;;5088577;28;20088;-72
2023/07/16 02:19:00;;;;;;;10.00;2.97;;;16.10;78.80;;;;;;5091091;28;20376;-72
2023/07/16 02:21:26;;;;;;;9.80;2.80;;;16.10;78.70;;;;;;5081755;28;20048;-72
2023/07/16 02:23:51;;;;;;;10.23;3.17;;;16.20;78.70;;;;;;5091977;28;20173;-72
2023/07/16 02:26:17;;;;;;;13.00;3.60;;;16.20;78.90;;;;;;5085066;28;20114;-72
2023/07/16 02:28:43;;;;;;;13.47;4.67;;;16.20;79.50;;;;;;5076499;28;20035;-72
2023/07/16 02:31:09;;;;;;;12.60;5.07;;;16.20;80.10;;;;;;5089599;28;20122;-72
2023/07/16 02:33:34;;;;;;;16.03;5.27;;;16.40;80.80;;;;;;5071525;28;20047;-72
2023/07/16 02:36:00;;;;;;;10.90;4.57;;;16.50;80.70;;;;;;5088582;28;20044;-72
2023/07/16 02:38:26;;;;;;;13.10;5.00;;;16.60;80.70;;;;;;5069925;28;20040;-72
2023/07/16 02:40:51;;;;;;;12.73;5.27;;;16.60;80.10;;;;;;5085968;28;20056;-72
2023/07/16 02:43:17;;;;;;;13.43;4.50;;;16.60;79.30;;;;;;5085366;28;20044;-72
2023/07/16 02:45:43;;;;;;;15.53;6.00;;;16.70;79.00;;;;;;5080040;28;20511;-72
2023/07/16 02:48:08;;;;;;;17.53;5.80;;;16.60;79.20;;;;;;5077386;28;20028;-72
2023/07/16 02:50:38;;;;;;;13.53;5.53;;;16.60;79.30;;;;;;5063894;28;20503;-72
2023/07/16 02:53:05;;;;;;;10.80;4.63;;;16.60;79.30;;;;;;5065223;28;20040;-72
2023/07/16 02:55:30;;;;;;;13.87;5.67;;;16.60;79.50;;;;;;5077755;28;20317;-72
2023/07/16 02:57:56;;;;;;;13.80;5.20;;;16.60;79.40;;;;;;5068486;28;20285;-72
2023/07/16 03:00:22;;;;;;;17.93;6.00;;;16.50;79.60;;;;;;5062613;28;20849;-72
2023/07/16 03:02:49;;;;;;;15.47;5.10;;;16.60;79.70;;;;;;5063049;28;20711;-72
2023/07/16 03:05:18;;;;;;;14.43;5.43;;;16.60;79.90;;;;;;5082696;28;20039;-72
2023/07/16 03:07:44;;;;;;;12.70;5.23;;;16.60;79.70;;;;;;5067874;28;20386;-72
2023/07/16 03:10:09;;;;;;;16.53;5.60;;;16.60;79.60;;;;;;5061548;28;20842;-72
2023/07/16 03:12:35;;;;;;;17.53;5.83;;;16.70;79.60;;;;;;5078728;28;20040;-72
2023/07/16 03:15:01;;;;;;;13.53;5.60;;;16.70;79.40;;;;;;5080619;28;20381;-72
2023/07/16 03:17:27;;;;;;;14.10;5.23;;;16.80;79.10;;;;;;5079033;28;20055;-72
2023/07/16 03:19:52;;;;;;;13.03;5.43;;;16.90;78.70;;;;;;5067510;28;20136;-72
2023/07/16 03:22:18;;;;;;;12.30;5.47;;;17.00;78.70;;;;;;5074827;28;20044;-72
2023/07/16 03:24:44;;;;;;;14.33;5.73;;;17.00;78.90;;;;;;5063335;28;20151;-72
2023/07/16 03:27:09;;;;;;;12.50;5.00;;;17.00;78.50;;;;;;5071120;28;20051;-72
2023/07/16 03:29:35;;;;;;;15.20;5.50;;;17.00;78.60;;;;;;5075202;28;20043;-72
2023/07/16 03:32:01;;;;;;;15.47;5.27;;;17.00;78.70;;;;;;5071140;28;20562;-72
2023/07/16 03:34:27;;;;;;;13.93;5.43;;;17.00;78.90;;;;;;5063952;28;20028;-72
2023/07/16 03:36:53;;;;;;;16.20;6.03;;;17.00;79.00;;;;;;5059362;28;20286;-72
2023/07/16 03:39:18;;;;;;;15.37;5.93;;;17.00;79.40;;;;;;5078058;28;20048;-72
2023/07/16 03:41:44;;;;;;;19.90;5.97;;;17.00;79.40;;;;;;5088092;28;20051;-70
2023/07/16 03:44:10;;;;;;;13.17;6.27;;;17.00;79.30;;;;;;5081955;28;20048;-71
2023/07/16 03:46:36;;;;;;;15.57;6.00;;;17.00;79.30;;;;;;5071197;28;20040;-70
2023/07/16 03:49:02;;;;;;;16.90;5.90;;;17.10;79.40;;;;;;5090742;28;20293;-70
2023/07/16 03:51:28;;;;;;;13.20;5.73;;;17.10;79.10;;;;;;5082765;28;20036;-70
2023/07/16 03:53:53;;;;;;;15.20;6.10;;;17.20;78.80;;;;;;5087686;28;20089;-70
2023/07/16 03:56:19;;;;;;;16.23;5.87;;;17.20;78.50;;;;;;5070896;28;20363;-70
2023/07/16 03:58:45;;;;;;;14.40;6.17;;;17.20;78.60;;;;;;5078490;28;20122;-70
2023/07/16 04:01:10;;;;;;;15.87;6.00;;;17.20;78.80;;;;;;5070902;28;20040;-70
2023/07/16 04:03:36;;;;;;;14.77;6.20;;;17.20;78.60;;;;;;5073566;28;20044;-70
2023/07/16 04:06:09;;;;;;;15.47;7.10;;;17.10;78.60;;;;;;5094709;28;20032;-70
2023/07/16 04:08:35;;;;;;;14.10;5.80;;;17.10;78.60;;;;;;5081910;28;20034;-70
2023/07/16 04:11:01;;;;;;;18.07;6.73;;;17.10;78.80;;;;;;5089588;28;20300;-70
2023/07/16 04:13:27;;;;;;;19.77;6.80;;;17.10;78.60;;;;;;5072302;28;20825;-70
2023/07/16 04:15:54;;;;;;;15.03;6.03;;;17.10;78.50;;;;;;5072409;28;20286;-70
2023/07/16 04:18:21;;;;;;;17.37;6.27;;;17.20;78.30;;;;;;5088546;28;20048;-70
2023/07/16 04:20:47;;;;;;;13.53;5.67;;;17.20;78.50;;;;;;5083618;28;20297;-70
2023/07/16 04:23:12;;;;;;;13.27;6.77;;;17.30;78.50;;;;;;5083360;28;20757;-70
2023/07/16 04:25:38;;;;;;;13.37;5.53;;;17.30;78.40;;;;;;5088677;28;20037;-70
2023/07/16 04:28:04;;;;;;;13.67;5.60;;;17.40;78.60;;;;;;5081213;28;20551;-70
2023/07/16 04:30:30;;;;;;;12.07;6.37;;;17.40;78.30;;;;;;5085284;28;20039;-70
2023/07/16 04:32:55;;;;;;;16.17;6.13;;;17.40;78.40;;;;;;5077404;28;20039;-70
2023/07/16 04:35:21;;;;;;;14.10;6.43;;;17.40;78.70;;;;;;5069475;28;20096;-70
2023/07/16 04:37:47;;;;;;;15.10;6.43;;;17.40;79.10;;;;;;5086857;28;20616;-70
2023/07/16 04:40:12;;;;;;;14.53;5.50;;;17.30;79.20;;;;;;5057904;28;20139;-70
2023/07/16 04:42:38;;;;;;;14.73;5.60;;;17.30;79.20;;;;;;5081623;28;20075;-70
2023/07/16 04:45:05;;;;;;;15.27;5.60;;;17.30;78.60;;;;;;5069304;28;20040;-70
2023/07/16 04:47:31;;;;;;;14.10;6.20;;;17.40;78.00;;;;;;5067905;28;20040;-70
2023/07/16 04:49:58;;;;;;;13.10;5.83;;;17.50;77.70;;;;;;5081717;28;20289;-70
2023/07/16 04:52:24;;;;;;;16.47;6.33;;;17.60;77.40;;;;;;5071353;28;20293;-70
2023/07/16 04:54:50;;;;;;;16.37;6.97;;;17.70;76.90;;;;;;5083095;28;20647;-70
2023/07/16 04:57:15;;;;;;;15.37;6.23;;;17.70;77.10;;;;;;5062026;28;20085;-70
2023/07/16 04:59:41;;;;;;;13.53;5.87;;;17.60;77.20;;;;;;5088942;28;20051;-71
2023/07/16 05:02:07;;;;;;;15.83;6.67;;;17.60;77.40;;;;;;5067597;28;20067;-70
2023/07/16 05:04:34;;;;;;;14.73;6.53;;;17.70;77.40;;;;;;5076786;28;20037;-70
2023/07/16 05:07:02;;;;;;;14.60;6.13;;;17.90;77.60;;;;;;5086169;28;20290;-70
2023/07/16 05:09:28;;;;;;;15.87;7.17;;;17.90;78.70;;;;;;5070519;28;20318;-71
2023/07/16 05:11:54;;;;;;;17.53;6.83;;;17.60;81.10;;;;;;5085717;28;20679;-71
2023/07/16 05:14:19;;;;;;;19.53;7.20;;;17.30;82.10;;;;;;5083017;28;20047;-70
2023/07/16 05:16:45;;;;;;;16.40;6.93;;;17.00;83.80;;;;;;5071307;28;20051;-70
2023/07/16 05:19:11;;;;;;;16.10;6.87;;;16.80;84.60;;;;;;5064726;28;20067;-70
2023/07/16 05:21:36;;;;;;;14.93;6.90;;;16.70;85.20;;;;;;5081726;28;20048;-70
2023/07/16 05:24:02;;;;;;;15.30;6.63;;;16.70;86.80;;;;;;5064463;28;20044;-70
2023/07/16 05:26:28;;;;;;;14.10;5.43;;;16.70;87.00;;;;;;5067743;28;20377;-73
2023/07/16 05:28:54;;;;;;;10.77;5.50;;;16.70;86.90;;;;;;5061551;28;20285;-71
2023/07/16 05:31:19;;;;;;;13.07;5.67;;;16.80;86.40;;;;;;5061442;28;20036;-71
2023/07/16 05:33:45;;;;;;;14.23;5.20;;;16.90;86.10;;;;;;5070541;28;20043;-71
2023/07/16 05:36:11;;;;;;;13.10;5.03;;;17.00;85.80;;;;;;5067753;28;20105;-71
2023/07/16 05:38:36;;;;;;;14.80;5.50;;;17.20;85.20;;;;;;5068214;28;20044;-71
2023/07/16 05:41:03;;;;;;;13.13;4.77;;;17.30;85.10;;;;;;5063038;28;20052;-72
2023/07/16 05:43:29;;;;;;;13.70;5.40;;;17.70;84.60;;;;;;5071110;28;20097;-71
2023/07/16 05:45:55;;;;;;;13.63;5.37;;;18.10;82.30;;;;;;5068254;28;20294;-71
2023/07/16 05:48:21;;;;;;;14.30;5.33;;;18.10;81.60;;;;;;5086502;28;20034;-71
2023/07/16 05:50:46;;;;;;;11.63;5.13;;;18.00;81.90;;;;;;5073869;28;20041;-71
2023/07/16 05:53:13;;;;;;;13.30;4.83;;;17.90;82.20;;;;;;5078263;28;20137;-71
2023/07/16 05:55:42;;;;;;;11.70;4.50;;;18.10;82.00;;;;;;5087662;28;20123;-71
2023/07/16 05:58:08;;;;;;;10.20;4.60;;;18.50;80.10;;;;;;5069010;28;20289;-71
2023/07/16 06:00:37;;;;;;;14.73;5.43;;;18.20;80.70;;;;;;5078300;28;20355;-71
2023/07/16 06:03:03;;;;;;;13.30;5.50;;;17.80;82.40;;;;;;5083939;28;20044;-71
2023/07/16 06:05:33;;;;;;;12.90;4.37;;;17.40;83.30;;;;;;5067605;28;20764;-71
2023/07/16 06:08:00;;;;;;;13.87;4.93;;;17.20;84.10;;;;;;5081809;28;20281;-71
2023/07/16 06:10:25;;;;;;;13.73;5.50;;;17.10;85.00;;;;;;5056804;28;20289;-71
2023/07/16 06:12:51;;;;;;;12.97;5.13;;;17.30;85.70;;;;;;5081790;28;20278;-71
2023/07/16 06:15:17;;;;;;;14.90;5.10;;;17.70;84.80;;;;;;5065112;28;20036;-71
2023/07/16 06:17:42;;;;;;;13.57;5.27;;;18.10;83.60;;;;;;5074398;28;20507;-71
2023/07/16 06:20:09;;;;;;;14.13;5.17;;;18.20;81.90;;;;;;5071512;28;20075;-71
2023/07/16 06:22:34;;;;;;;15.80;5.67;;;18.20;81.30;;;;;;5061428;28;20458;-71
2023/07/16 06:25:00;;;;;;;13.90;5.30;;;18.10;81.30;;;;;;5072225;28;20279;-71
2023/07/16 06:27:26;;;;;;;15.63;5.57;;;18.10;81.00;;;;;;5074655;28;20077;-71
2023/07/16 06:29:52;;;;;;;14.63;5.90;;;18.20;80.50;;;;;;5061518;28;20100;-71
2023/07/16 06:32:17;;;;;;;15.43;5.90;;;18.20;80.30;;;;;;5068604;28;20879;-71
2023/07/16 06:34:43;;;;;;;16.53;5.97;;;18.10;80.70;;;;;;5083346;28;20036;-71
2023/07/16 06:37:09;;;;;;;12.57;5.50;;;18.00;80.80;;;;;;5066608;28;20040;-71
2023/07/16 06:39:35;;;;;;;15.83;5.47;;;18.20;80.00;;;;;;5060337;28;20500;-71
2023/07/16 06:42:00;;;;;;;15.80;6.87;;;18.30;79.50;;;;;;5062529;28;20126;-71
2023/07/16 06:44:26;;;;;;;10.80;4.83;;;18.30;79.00;;;;;;5058017;28;20071;-72
2023/07/16 06:46:52;;;;;;;11.53;5.00;;;18.50;78.80;;;;;;5085009;28;20033;-71
2023/07/16 06:49:18;;;;;;;13.03;4.90;;;18.60;78.30;;;;;;5059723;28;20040;-71
2023/07/16 06:51:44;;;;;;;13.63;5.47;;;18.60;77.20;;;;;;5076754;28;20976;-71
2023/07/16 06:54:10;;;;;;;13.10;5.13;;;18.60;76.80;;;;;;5065083;28;20289;-71
2023/07/16 06:56:35;;;;;;;12.80;4.97;;;18.40;76.80;;;;;;5076134;28;20068;-71
2023/07/16 06:59:01;;;;;;;10.73;4.77;;;18.30;77.60;;;;;;5077404;28;20101;-71
2023/07/16 07:01:27;;;;;;;16.13;5.23;;;18.20;77.70;;;;;;5067804;28;20086;-71
2023/07/16 07:03:54;;;;;;;15.67;5.10;;;18.20;77.40;;;;;;5088126;28;20078;-71
2023/07/16 07:06:21;;;;;;;12.20;4.83;;;18.30;77.70;;;;;;5075961;28;20352;-71
2023/07/16 07:08:47;;;;;;;14.87;5.30;;;18.40;77.80;;;;;;5079675;28;20831;-71
2023/07/16 07:11:12;;;;;;;11.60;4.47;;;18.50;77.70;;;;;;5060507;28;20290;-71
2023/07/16 07:13:38;;;;;;;15.47;4.70;;;18.80;77.90;;;;;;5085242;28;20044;-71
2023/07/16 07:16:04;;;;;;;9.83;4.33;;;19.30;75.60;;;;;;5084420;28;20383;-71
2023/07/16 07:18:30;;;;;;;12.37;4.70;;;19.60;73.90;;;;;;5070445;28;20051;-72
2023/07/16 07:20:56;;;;;;;12.43;4.50;;;19.80;72.80;;;;;;5070416;28;20495;-71
2023/07/16 07:23:22;;;;;;;12.63;4.70;;;19.80;71.60;;;;;;5079745;28;20040;-71
2023/07/16 07:25:51;;;;;;;12.37;4.40;;;19.90;72.40;;;;;;5077038;28;20040;-71
2023/07/16 07:28:17;;;;;;;10.63;4.77;;;19.80;71.80;;;;;;5086018;28;20055;-71
2023/07/16 07:30:44;;;;;;;13.30;5.27;;;19.60;71.90;;;;;;5072710;28;20040;-71
2023/07/16 07:33:10;;;;;;;11.73;4.80;;;19.50;72.60;;;;;;5073347;28;20347;-72
2023/07/16 07:35:35;;;;;;;11.90;4.30;;;19.50;73.50;;;;;;5073779;28;20129;-71
2023/07/16 07:38:01;;;;;;;13.53;4.50;;;19.50;72.10;;;;;;5073591;28;20047;-71
2023/07/16 07:40:27;;;;;;;10.93;4.43;;;19.40;72.30;;;;;;5073288;28;20079;-71
2023/07/16 07:42:53;;;;;;;14.23;4.80;;;19.20;72.70;;;;;;5080419;28;20055;-71
2023/07/16 07:45:18;;;;;;;13.80;5.20;;;19.10;73.30;;;;;;5072789;28;20028;-72
2023/07/16 07:47:44;;;;;;;12.40;4.60;;;19.00;74.10;;;;;;5082037;28;20037;-72
2023/07/16 07:50:10;;;;;;;14.37;4.60;;;19.00;73.80;;;;;;5074104;28;20515;-73
2023/07/16 07:52:36;;;;;;;13.67;5.23;;;19.00;74.00;;;;;;5085731;28;20039;-71
2023/07/16 07:55:02;;;;;;;11.63;4.93;;;19.20;74.20;;;;;;5075421;28;20062;-73
2023/07/16 07:57:28;;;;;;;11.57;4.50;;;19.50;73.60;;;;;;5090913;28;20133;-73
2023/07/16 07:59:57;;;;;;;12.10;4.60;;;19.80;73.40;;;;;;5091771;28;20346;-73
2023/07/16 08:02:26;;;;;;;10.33;4.50;;;19.90;72.50;;;;;;5084696;28;20457;-73
2023/07/16 08:04:53;;;;;;;13.97;5.67;;;20.10;72.60;;;;;;5091402;28;20036;-73
2023/07/16 08:07:19;;;;;;;13.23;4.97;;;20.10;71.80;;;;;;5074148;28;20040;-73
2023/07/16 08:09:45;;;;;;;11.83;4.50;;;20.10;71.30;;;;;;5090349;28;20051;-72
2023/07/16 08:12:11;;;;;;;15.77;5.70;;;20.00;71.00;;;;;;5086416;28;20078;-71
2023/07/16 08:14:37;;;;;;;11.40;5.10;;;20.00;71.30;;;;;;5078168;28;20064;-72
2023/07/16 08:17:03;;;;;;;8.70;4.67;;;20.00;71.40;;;;;;5087686;28;20032;-71
2023/07/16 08:19:28;;;;;;;11.37;5.00;;;20.10;71.70;;;;;;5072733;28;20043;-71
2023/07/16 08:21:54;;;;;;;12.40;4.97;;;20.20;70.50;;;;;;5086685;28;20127;-72
2023/07/16 08:24:20;;;;;;;10.53;4.57;;;20.30;70.20;;;;;;5088858;28;20117;-71
2023/07/16 08:26:46;;;;;;;13.47;4.80;;;20.50;69.40;;;;;;5072152;28;20043;-72
2023/07/16 08:29:11;;;;;;;12.53;4.63;;;20.60;69.10;;;;;;5072005;28;20039;-71
2023/07/16 08:31:37;;;;;;;13.50;4.73;;;20.70;68.40;;;;;;5088730;28;20048;-72
2023/07/16 08:34:03;;;;;;;12.10;5.13;;;20.80;66.60;;;;;;5065350;28;20508;-71
2023/07/16 08:36:28;;;;;;;13.30;4.40;;;20.70;67.30;;;;;;5088960;28;20059;-71
2023/07/16 08:38:54;;;;;;;13.43;4.27;;;20.60;67.20;;;;;;5088513;28;20074;-71
2023/07/16 08:41:20;;;;;;;11.60;4.03;;;20.60;67.70;;;;;;5088310;28;20048;-71
2023/07/16 08:43:49;;;;;;;11.17;4.40;;;20.60;67.00;;;;;;5077897;28;20393;-71
2023/07/16 08:46:18;;;;;;;13.73;4.70;;;20.70;66.70;;;;;;5070425;28;20036;-71
2023/07/16 08:48:45;;;;;;;10.37;4.00;;;20.70;66.50;;;;;;5089204;28;20667;-72
2023/07/16 08:51:14;;;;;;;11.47;4.53;;;20.60;66.40;;;;;;5078144;28;20043;-72
2023/07/16 08:53:40;;;;;;;10.43;3.90;;;20.30;67.80;;;;;;5085318;28;20051;-72
2023/07/16 08:56:06;;;;;;;10.10;4.40;;;20.30;68.60;;;;;;5088979;28;20455;-72
2023/07/16 08:58:32;;;;;;;16.57;5.17;;;20.50;69.20;;;;;;5088336;28;20050;-72
2023/07/16 09:01:00;;;;;;;12.03;4.60;;;20.60;69.10;;;;;;5071790;28;20051;-72
2023/07/16 09:03:26;;;;;;;15.63;4.90;;;20.80;69.50;;;;;;5086499;28;20093;-72
2023/07/16 09:05:54;;;;;;;9.83;4.27;;;21.00;68.60;;;;;;5082067;28;20443;-71
2023/07/16 09:08:19;;;;;;;11.83;4.30;;;21.20;68.40;;;;;;5089985;28;20392;-71
2023/07/16 09:10:57;;;;;;;12.93;5.20;;;21.30;67.70;;;;;;5070678;28;20028;-72
2023/07/16 09:13:26;;;;;;;12.33;4.80;;;21.50;66.10;;;;;;5087366;28;20074;-72
2023/07/16 09:15:54;;;;;;;14.13;4.33;;;21.50;64.60;;;;;;5090604;28;20036;-71
2023/07/16 09:18:21;;;;;;;10.43;3.97;;;21.30;64.30;;;;;;5078940;28;20089;-71
2023/07/16 09:20:48;;;;;;;12.50;4.20;;;21.10;63.80;;;;;;5093104;28;20066;-72
2023/07/16 09:23:16;;;;;;;16.97;4.63;;;20.80;64.70;;;;;;5093880;28;20039;-71
2023/07/16 09:25:43;;;;;;;12.27;4.07;;;20.60;64.40;;;;;;5082202;28;20148;-72
2023/07/16 09:28:09;;;;;;;9.50;4.10;;;20.60;65.40;;;;;;5084749;28;20059;-72
2023/07/16 09:30:35;;;;;;;8.80;3.93;;;20.70;65.30;;;;;;5088695;28;20036;-72
2023/07/16 09:33:16;;;;;;;10.77;4.23;;;20.90;65.40;;;;;;5088478;28;20040;-72
2023/07/16 09:35:43;;;;;;;8.83;4.47;;;21.10;64.30;;;;;;5062391;28;20036;-72
2023/07/16 09:38:10;;;;;;;10.03;4.27;;;21.10;63.80;;;;;;5086874;28;20407;-71
2023/07/16 09:40:42;;;;;;;10.40;4.90;;;20.90;64.30;;;;;;5088291;28;20504;-71
2023/07/16 09:43:08;;;;;;;11.20;4.83;;;20.70;64.60;;;;;;5088354;28;20072;-71
2023/07/16 09:45:35;;;;;;;8.80;4.40;;;20.60;65.80;;;;;;5086500;28;20044;-71
2023/07/16 09:48:01;;;;;;;10.33;4.93;;;20.70;66.10;;;;;;5084781;28;20373;-71
2023/07/16 09:50:33;;;;;;;14.40;4.60;;;20.80;66.00;;;;;;5075623;28;20040;-71
2023/07/16 09:52:59;;;;;;;12.97;5.10;;;21.00;65.30;;;;;;5087892;28;20044;-71
2023/07/16 09:55:25;;;;;;;14.77;4.60;;;21.20;64.50;;;;;;5075136;28;20476;-71
2023/07/16 09:57:57;;;;;;;16.13;4.97;;;21.40;64.20;;;;;;5082620;28;20085;-71
2023/07/16 10:00:23;;;;;;;10.13;4.07;;;21.50;63.00;;;;;;5076174;28;20094;-71
2023/07/16 10:02:52;;;;;;;12.73;4.90;;;21.50;61.60;;;;;;5061096;28;20032;-72
2023/07/16 10:05:28;;;;;;;9.57;3.47;;;21.30;62.00;;;;;;5061645;28;20093;-72
2023/07/16 10:07:59;;;;;;;11.57;3.83;;;21.00;62.70;;;;;;5068146;28;20396;-72
2023/07/16 10:10:42;;;;;;;10.07;3.87;;;20.80;62.70;;;;;;5073069;28;20028;-72
2023/07/16 10:13:11;;;;;;;10.50;3.83;;;20.60;64.10;;;;;;5069910;28;20048;-71
2023/07/16 10:15:36;;;;;;;8.73;3.33;;;20.40;63.20;;;;;;5103571;28;20052;-71
2023/07/16 10:18:02;;;;;;;10.73;3.20;;;20.50;63.50;;;;;;5075011;28;20044;-72
2023/07/16 10:20:42;;;;;;;9.43;3.00;;;20.70;63.00;;;;;;5077840;28;20082;-72
2023/07/16 10:23:15;;;;;;;11.00;3.47;;;20.90;63.40;;;;;;5069442;28;20463;-72
2023/07/16 10:26:00;;;;;;;12.27;3.40;;;21.20;63.20;;;;;;5070228;28;20111;-71
2023/07/16 10:28:26;;;;;;;11.70;3.47;;;21.40;61.00;;;;;;5084989;28;20118;-72
2023/07/16 10:30:52;;;;;;;9.57;3.17;;;21.30;61.20;;;;;;5070391;28;20206;-71
2023/07/16 10:33:17;;;;;;;14.63;3.53;;;21.20;60.90;;;;;;5055331;28;20109;-71
2023/07/16 10:35:45;;;;;;;11.67;3.33;;;21.10;61.30;;;;;;5074903;28;20032;-71
2023/07/16 10:38:11;;;;;;;12.20;3.40;;;21.20;61.70;;;;;;5056118;28;20050;-71
2023/07/16 10:40:44;;;;;;;9.40;3.60;;;21.50;61.80;;;;;;5051845;28;20066;-72
2023/07/16 10:43:11;;;;;;;9.87;3.67;;;21.40;60.10;;;;;;5074566;28;20046;-72
2023/07/16 10:45:37;;;;;;;13.23;3.60;;;21.30;61.00;;;;;;5078824;28;20050;-72
2023/07/16 10:48:03;;;;;;;7.30;3.57;;;21.20;60.70;;;;;;5082466;28;20040;-72
2023/07/16 10:50:31;;;;;;;8.73;3.60;;;21.20;61.10;;;;;;5065913;28;20024;-72
2023/07/16 10:52:57;;;;;;;11.03;3.20;;;21.20;60.80;;;;;;5075070;28;20051;-72
2023/07/16 10:55:26;;;;;;;9.37;3.23;;;21.00;59.40;;;;;;5082211;28;20040;-72
2023/07/16 10:57:53;;;;;;;12.47;3.20;;;20.90;59.60;;;;;;5078472;28;20051;-72
2023/07/16 11:00:20;;;;;;;9.77;3.20;;;21.20;59.70;;;;;;5076383;28;20040;-72
2023/07/16 11:02:46;;;;;;;14.77;3.67;;;21.40;57.60;;;;;;5079730;28;20036;-72
2023/07/16 11:05:16;;;;;;;10.27;3.10;;;21.20;58.10;;;;;;5066126;28;20071;-71
2023/07/16 11:07:44;;;;;;;9.63;2.87;;;21.20;57.80;;;;;;5083124;28;20047;-71
2023/07/16 11:10:11;;;;;;;12.20;3.77;;;21.20;58.50;;;;;;5072160;28;20037;-71
2023/07/16 11:12:36;;;;;;;10.93;3.73;;;21.20;58.10;;;;;;5083005;28;20040;-71
2023/07/16 11:15:03;;;;;;;12.50;3.23;;;21.20;58.60;;;;;;5076418;28;20055;-71
2023/07/16 11:17:29;;;;;;;14.47;3.03;;;21.30;59.10;;;;;;5080863;28;20040;-71
2023/07/16 11:19:55;;;;;;;10.13;3.33;;;21.20;58.40;;;;;;5077660;28;20032;-71
2023/07/16 11:22:26;;;;;;;15.27;3.30;;;21.10;59.20;;;;;;5074364;28;20095;-71
2023/07/16 11:24:53;;;;;;;16.73;3.70;;;20.90;60.30;;;;;;5081736;28;20071;-71
2023/07/16 11:27:25;;;;;;;11.30;3.73;;;20.80;61.00;;;;;;5081901;28;20040;-71
2023/07/16 11:29:56;;;;;;;10.73;3.20;;;20.60;61.60;;;;;;5060537;28;20028;-72
2023/07/16 11:32:34;;;;;;;11.80;3.13;;;20.70;62.30;;;;;;5065178;28;20036;-72
2023/07/16 11:35:01;;;;;;;14.23;3.03;;;20.90;62.00;;;;;;5077165;28;20036;-72
2023/07/16 11:37:31;;;;;;;12.13;2.87;;;21.00;61.10;;;;;;5080088;28;20062;-72
2023/07/16 11:40:24;;;;;;;13.17;3.17;;;21.00;60.20;;;;;;5063962;28;20083;-72
2023/07/16 11:42:50;;;;;;;13.50;3.47;;;20.80;60.90;;;;;;5086393;28;20059;-72
2023/07/16 11:45:22;;;;;;;15.40;3.63;;;20.50;61.80;;;;;;5077669;28;20587;-72
2023/07/16 11:47:49;;;;;;;8.87;2.60;;;20.50;63.10;;;;;;5091512;28;20130;-71
2023/07/16 11:50:15;;;;;;;11.27;3.17;;;20.70;62.20;;;;;;5089841;28;20062;-70
2023/07/16 11:52:41;;;;;;;15.63;4.63;;;20.80;61.30;;;;;;5087609;28;20040;-72
2023/07/16 11:55:07;;;;;;;13.47;3.77;;;20.80;62.60;;;;;;5083865;28;20051;-72
2023/07/16 11:57:34;;;;;;;14.77;3.60;;;20.90;62.60;;;;;;5084229;28;20106;-72
2023/07/16 12:00:00;;;;;;;20.40;5.80;;;20.90;63.10;;;;;;5076025;28;20042;-72
2023/07/16 12:02:27;;;;;;;16.03;3.93;;;20.90;63.50;;;;;;5077545;28;20598;-72
2023/07/16 12:04:52;;;;;;;14.47;3.60;;;21.00;63.70;;;;;;5084647;28;20119;-72
2023/07/16 12:07:36;;;;;;;13.20;3.70;;;21.00;63.90;;;;;;5066554;28;20114;-72
2023/07/16 12:10:06;;;;;;;11.83;3.70;;;21.00;63.40;;;;;;5077156;28;20046;-72
2023/07/16 12:12:33;;;;;;;11.57;3.57;;;21.00;63.80;;;;;;5111004;27;20044;-71
2023/07/16 12:14:59;;;;;;;15.73;5.30;;;21.00;64.10;;;;;;5069244;28;20051;-72
2023/07/16 12:17:25;;;;;;;12.73;4.47;;;21.00;64.10;;;;;;5066916;28;20119;-72
2023/07/16 12:19:51;;;;;;;9.53;3.43;;;20.90;64.50;;;;;;5098504;28;20032;-70
2023/07/16 12:22:18;;;;;;;12.80;3.87;;;20.70;64.00;;;;;;5084371;28;20105;-71
2023/07/16 12:24:46;;;;;;;14.70;3.77;;;20.80;63.40;;;;;;5081360;28;20119;-71
2023/07/16 12:27:12;;;;;;;11.37;3.60;;;20.70;63.80;;;;;;5082113;28;20912;-71
2023/07/16 12:29:38;;;;;;;11.93;3.73;;;20.70;64.30;;;;;;5088647;28;20028;-71
2023/07/16 12:32:04;;;;;;;26.33;3.57;;;20.90;64.90;;;;;;5091288;28;20044;-70
2023/07/16 12:34:29;;;;;;;12.60;3.20;;;21.00;62.20;;;;;;5068922;28;20043;-69
2023/07/16 12:36:55;;;;;;;13.40;2.77;;;21.10;60.80;;;;;;5079620;28;20040;-70